| time (UTC) | temp F | wind direction | speed MPH | gust MPH | rain 1hr in | rain 24hr in | rain mn in | humidity % | barometer mb |
| 20260901013035 | 58 | 120 | 0.0 | 2.0 | 0.00 | 0.29 | 0.00 | 86 | |
| 20260901010106 | 60 | 134 | 0.0 | 2.0 | 0.00 | 0.29 | 0.00 | 82 | |
| 20260901003036 | 61 | 155 | 0.0 | 2.0 | 0.00 | 0.29 | 0.00 | 79 | |
| 20260901000107 | 61 | 124 | 1.0 | 3.0 | 0.00 | 0.29 | 0.00 | 78 | |
| 20260831233037 | 62 | 195 | 1.0 | 8.0 | 0.00 | 0.29 | 0.00 | 77 | |
| 20260831230108 | 61 | 156 | 1.0 | 4.0 | 0.00 | 0.29 | 0.00 | 79 | |
| 20260831223039 | 61 | 113 | 1.0 | 4.0 | 0.00 | 0.29 | 0.00 | 80 | |
| 20260831220109 | 61 | 143 | 0.0 | 2.0 | 0.00 | 0.29 | 0.00 | 79 | |
| 20260831213038 | 62 | 139 | 0.0 | 3.0 | 0.00 | 0.29 | 0.29 | 75 | |
| 20260831210110 | 63 | 152 | 1.0 | 4.0 | 0.00 | 0.29 | 0.29 | 74 | |
| 20260831203039 | 63 | 177 | 0.0 | 6.0 | 0.00 | 0.29 | 0.29 | 75 | |
| 20260831200111 | 62 | 114 | 0.0 | 2.0 | 0.00 | 0.29 | 0.29 | 76 | |
| 20260831193041 | 64 | 159 | 0.0 | 3.0 | 0.00 | 0.29 | 0.29 | 72 | |
| 20260831190112 | 66 | 219 | 2.0 | 14.0 | 0.00 | 0.29 | 0.29 | 67 | |
| 20260831183042 | 69 | 244 | 4.0 | 16.0 | 0.00 | 0.29 | 0.29 | 60 | |
| 20260831180113 | 70 | 198 | 2.0 | 8.0 | 0.00 | 0.29 | 0.29 | 57 | |
| 20260831173044 | 71 | 217 | 2.0 | 9.0 | 0.00 | 0.29 | 0.29 | 54 | |
| 20260831170114 | 73 | 220 | 2.0 | 9.0 | 0.00 | 0.29 | 0.29 | 50 | |
| 20260831163044 | 75 | 267 | 2.0 | 8.0 | 0.00 | 0.29 | 0.29 | 48 | |
| 20260831160115 | 75 | 196 | 3.0 | 11.0 | 0.00 | 0.29 | 0.29 | 47 | |
| 20260831153045 | 75 | 257 | 3.0 | 11.0 | 0.00 | 0.29 | 0.29 | 47 | |
| 20260831150156 | 76 | 192 | 2.0 | 10.0 | 0.00 | 0.29 | 0.29 | 48 | |
| 20260831143106 | 76 | 257 | 3.0 | 10.0 | 0.00 | 0.29 | 0.29 | 52 | |
| 20260831140015 | 75 | 247 | 2.0 | 10.0 | 0.00 | 0.29 | 0.29 | 55 | |
| 20260831133046 | 75 | 257 | 3.0 | 11.0 | 0.00 | 0.29 | 0.29 | 56 | |
| 20260831130018 | 75 | 264 | 3.0 | 11.0 | 0.00 | 0.29 | 0.29 | 56 | |
| 20260831123048 | 74 | 235 | 3.0 | 10.0 | 0.00 | 0.29 | 0.29 | 57 | |
| 20260831120038 | 74 | 238 | 3.0 | 11.0 | 0.00 | 0.29 | 0.29 | 57 | |
| 20260831113048 | 72 | 221 | 3.0 | 11.0 | 0.00 | 0.29 | 0.29 | 60 | |
| 20260831110019 | 72 | 234 | 3.0 | 13.0 | 0.00 | 0.29 | 0.29 | 62 | |
| 20260831103050 | 70 | 280 | 3.0 | 9.0 | 0.00 | 0.29 | 0.29 | 67 | |
| 20260831100020 | 70 | 269 | 4.0 | 16.0 | 0.00 | 0.29 | 0.29 | 69 | |
| 20260831093050 | 69 | 277 | 3.0 | 9.0 | 0.00 | 0.29 | 0.29 | 75 | |
| 20260831090021 | 67 | 149 | 3.0 | 13.0 | 0.00 | 0.29 | 0.29 | 79 | |
| 20260831083052 | 67 | 155 | 1.0 | 7.0 | 0.00 | 0.29 | 0.29 | 83 | |
| 20260831080022 | 66 | 241 | 2.0 | 10.0 | 0.00 | 0.29 | 0.29 | 86 | |
| 20260831073112 | 65 | 158 | 2.0 | 7.0 | 0.00 | 0.29 | 0.29 | 88 | |
| 20260831070023 | 63 | 265 | 3.0 | 13.0 | 0.01 | 0.29 | 0.29 | 91 | |
| 20260831063054 | 62 | 192 | 1.0 | 7.0 | 0.01 | 0.29 | 0.29 | 95 | |
| 20260831060023 | 62 | 152 | 0.0 | 4.0 | 0.00 | 0.28 | 0.28 | 96 | |
| 20260831053054 | 61 | 149 | 1.0 | 4.0 | 0.00 | 0.28 | 0.28 | 97 | |
| 20260831050024 | 60 | 294 | 0.0 | 7.0 | 0.00 | 0.28 | 0.28 | 98 | |
| 20260831043055 | 61 | 144 | 0.0 | 2.0 | 0.00 | 0.28 | 0.28 | 97 | |
| 20260831040044 | 61 | 147 | 1.0 | 3.0 | 0.02 | 0.28 | 0.28 | 96 | |
| 20260831033056 | 61 | 137 | 1.0 | 3.0 | 0.28 | 0.28 | 0.28 | 95 | |
| 20260831030026 | 62 | 179 | 2.0 | 9.0 | 0.26 | 0.26 | 0.26 | 92 | |
| 20260831023057 | 58 | 243 | 1.0 | 11.0 | 0.00 | 0.00 | 0.00 | 97 | |
| 20260831020027 | 58 | 134 | 0.0 | 3.0 | 0.00 | 0.00 | 0.00 | 97 |